Time;durP1;ratioP1;P1;durP2;ratioP2;P2;SDS_P1;SDS_P2;PMS_P1;PMS_P2;Temp;Humidity;BMP_temperature;BMP_pressure;BME280_temperature;BME280_humidity;BME280_pressure;Samples;Min_cycle;Max_cycle;Signal;HPM_P1;HPM_P2
2022/05/19 00:01:57;;;;;;;17.55;14.95;;;13.10;99.90;;;;;;5057033;28;20509;-60
2022/05/19 00:04:23;;;;;;;23.05;20.65;;;13.50;99.90;;;;;;5057154;28;20040;-60
2022/05/19 00:06:51;;;;;;;23.77;20.90;;;13.10;99.90;;;;;;5057586;28;20040;-60
2022/05/19 00:09:18;;;;;;;23.40;20.30;;;13.10;99.90;;;;;;5057417;28;20070;-61
2022/05/19 00:11:46;;;;;;;31.02;26.55;;;13.20;99.90;;;;;;5057258;28;20040;-60
2022/05/19 00:14:12;;;;;;;32.15;27.08;;;13.30;99.90;;;;;;5056672;28;20493;-61
2022/05/19 00:16:38;;;;;;;30.67;25.63;;;13.20;99.90;;;;;;5057891;28;20047;-61
2022/05/19 00:19:04;;;;;;;36.88;27.73;;;11.50;99.90;;;;;;5057487;28;20040;-60
2022/05/19 00:21:32;;;;;;;36.08;28.95;;;14.10;99.90;;;;;;5057118;28;20044;-60
2022/05/19 00:23:58;;;;;;;35.92;27.35;;;13.50;99.90;;;;;;5057078;28;20040;-60
2022/05/19 00:26:24;;;;;;;34.92;26.58;;;13.30;99.90;;;;;;5056980;28;20033;-60
2022/05/19 00:28:53;;;;;;;37.83;27.13;;;13.60;99.90;;;;;;5057239;28;20043;-60
2022/05/19 00:31:19;;;;;;;33.78;28.38;;;13.90;99.90;;;;;;5057125;28;20060;-60
2022/05/19 00:33:45;;;;;;;44.33;28.27;;;13.40;99.90;;;;;;5088602;28;20055;-61
2022/05/19 00:36:19;;;;;;;36.15;28.50;;;13.80;99.90;;;;;;5056660;28;20424;-60
2022/05/19 00:38:45;;;;;;;38.40;27.98;;;13.60;99.90;;;;;;5054005;28;20123;-61
2022/05/19 00:41:13;;;;;;;39.20;27.10;;;13.90;99.90;;;;;;5055632;28;20529;-60
2022/05/19 00:43:42;;;;;;;35.17;27.35;;;15.20;99.90;;;;;;5053927;28;20401;-61
2022/05/19 00:46:34;;;;;;;41.10;29.80;;;14.40;99.90;;;;;;5054777;28;20119;-60
2022/05/19 00:49:09;;;;;;;37.10;28.23;;;13.70;99.90;;;;;;5051932;28;20110;-60
2022/05/19 00:51:53;;;;;;;44.80;30.85;;;13.40;99.90;;;;;;5055291;28;20047;-60
2022/05/19 00:54:24;;;;;;;37.35;29.42;;;13.60;99.90;;;;;;5055454;28;20489;-60
2022/05/19 00:57:27;;;;;;;36.95;28.15;;;14.00;99.90;;;;;;5053548;28;20128;-60
2022/05/19 00:59:58;;;;;;;38.28;29.50;;;13.60;99.90;;;;;;5055444;28;20056;-60
2022/05/19 01:02:30;;;;;;;40.63;29.80;;;13.90;99.90;;;;;;5054675;28;20451;-60
2022/05/19 01:05:02;;;;;;;30.98;25.08;;;13.90;99.90;;;;;;5055368;28;20048;-60
2022/05/19 01:07:43;;;;;;;30.35;24.92;;;15.20;99.90;;;;;;5054905;28;20127;-60
2022/05/19 01:10:09;;;;;;;37.50;29.70;;;14.50;99.90;;;;;;5055109;28;20511;-60
2022/05/19 01:12:36;;;;;;;38.30;29.73;;;13.80;99.90;;;;;;5055011;28;20630;-60
2022/05/19 01:15:03;;;;;;;38.70;29.10;;;14.50;99.90;;;;;;5055010;28;20451;-60
2022/05/19 01:17:30;;;;;;;36.88;28.50;;;13.80;99.90;;;;;;5054105;28;20040;-60
2022/05/19 01:20:24;;;;;;;40.33;29.15;;;13.80;99.90;;;;;;5055420;28;20037;-60
2022/05/19 01:22:52;;;;;;;39.80;31.58;;;16.00;99.90;;;;;;5051294;28;20876;-60
2022/05/19 01:25:40;;;;;;;42.42;31.00;;;15.30;99.90;;;;;;5054828;28;21204;-60
2022/05/19 01:28:06;;;;;;;34.38;27.70;;;13.90;99.90;;;;;;5054505;28;20452;-60
2022/05/19 01:30:33;;;;;;;44.67;30.70;;;14.60;99.90;;;;;;5055224;28;20056;-60
2022/05/19 01:32:59;;;;;;;46.13;31.23;;;14.90;99.90;;;;;;5053310;28;20049;-60
2022/05/19 01:35:25;;;;;;;41.90;31.98;;;14.70;99.90;;;;;;5054306;28;20043;-60
2022/05/19 01:37:51;;;;;;;44.50;32.58;;;13.90;99.90;;;;;;5052950;28;20049;-60
2022/05/19 01:40:43;;;;;;;45.70;33.70;;;14.20;99.90;;;;;;5053191;28;20317;-59
2022/05/19 01:43:32;;;;;;;40.13;32.22;;;14.00;99.90;;;;;;5054514;28;20174;-60
2022/05/19 01:46:20;;;;;;;45.65;35.83;;;13.70;99.90;;;;;;5029836;28;20056;-60
2022/05/19 01:48:48;;;;;;;47.88;35.88;;;13.90;99.90;;;;;;5029811;28;20087;-59
2022/05/19 01:51:35;;;;;;;44.80;35.67;;;15.90;99.90;;;;;;5030516;28;20049;-60
2022/05/19 01:54:16;;;;;;;46.05;34.22;;;13.70;99.90;;;;;;5029985;28;20045;-60
2022/05/19 01:56:53;;;;;;;49.25;36.15;;;15.20;99.90;;;;;;5029605;28;20045;-60
2022/05/19 01:59:32;;;;;;;53.97;37.45;;;14.50;99.90;;;;;;5030568;28;20048;-60
2022/05/19 02:02:24;;;;;;;43.35;32.60;;;14.10;99.90;;;;;;5030849;28;20110;-60
2022/05/19 02:05:13;;;;;;;45.55;32.85;;;14.10;99.90;;;;;;5029825;28;20045;-60
2022/05/19 02:07:41;;;;;;;38.65;31.10;;;13.90;99.90;;;;;;5030030;28;20059;-59
2022/05/19 02:10:16;;;;;;;50.67;36.35;;;13.90;99.90;;;;;;5030774;28;20624;-60
2022/05/19 02:12:43;;;;;;;54.25;36.15;;;15.10;99.90;;;;;;5030037;28;20037;-60
2022/05/19 02:15:13;;;;;;;49.15;36.67;;;16.10;99.90;;;;;;5029291;28;20242;-60
2022/05/19 02:17:42;;;;;;;46.78;35.90;;;14.70;99.90;;;;;;5030529;28;20203;-59
2022/05/19 02:20:11;;;;;;;52.92;38.08;;;13.90;99.90;;;;;;5030273;28;20052;-59
2022/05/19 02:22:40;;;;;;;46.10;37.55;;;13.80;99.90;;;;;;5025190;28;20105;-59
2022/05/19 02:25:32;;;;;;;51.22;37.92;;;14.00;99.90;;;;;;5052035;28;20037;-59
2022/05/19 02:28:05;;;;;;;47.08;37.15;;;14.00;99.90;;;;;;5053259;28;20052;-59
2022/05/19 02:30:34;;;;;;;54.00;38.80;;;14.10;99.90;;;;;;5053564;28;20966;-59
2022/05/19 02:32:59;;;;;;;54.92;37.50;;;16.20;99.90;;;;;;5053241;28;20049;-59
2022/05/19 02:35:26;;;;;;;54.75;37.55;;;14.10;99.90;;;;;;5053732;28;20032;-59
2022/05/19 02:37:52;;;;;;;51.45;38.53;;;14.20;99.90;;;;;;5053065;28;20042;-59
2022/05/19 02:40:21;;;;;;;44.15;37.55;;;16.20;99.90;;;;;;5052558;28;20881;-59
2022/05/19 02:42:49;;;;;;;52.40;39.38;;;14.30;99.90;;;;;;5053474;28;20528;-59
2022/05/19 02:45:17;;;;;;;53.17;38.90;;;14.90;99.90;;;;;;5053201;28;20048;-59
2022/05/19 02:47:43;;;;;;;50.05;36.83;;;14.10;99.90;;;;;;5053271;28;20067;-59
2022/05/19 02:50:12;;;;;;;50.35;38.67;;;12.60;99.90;;;;;;5053707;28;20127;-59
2022/05/19 02:52:37;;;;;;;47.22;38.15;;;14.20;99.90;;;;;;5052513;28;20036;-59
2022/05/19 02:55:04;;;;;;;55.95;38.75;;;14.40;99.90;;;;;;5053818;28;20040;-59
2022/05/19 02:57:30;;;;;;;51.75;39.70;;;14.00;99.90;;;;;;5053009;28;20067;-59
2022/05/19 02:59:56;;;;;;;52.08;41.17;;;14.30;99.90;;;;;;5053837;28;20036;-59
2022/05/19 03:02:22;;;;;;;54.67;42.55;;;14.70;99.90;;;;;;5054311;28;20040;-59
2022/05/19 03:04:49;;;;;;;55.90;42.90;;;14.30;99.90;;;;;;5057401;28;20040;-59
2022/05/19 03:07:15;;;;;;;56.97;41.78;;;15.30;99.90;;;;;;5056774;28;20044;-59
2022/05/19 03:09:42;;;;;;;50.38;41.53;;;15.10;99.90;;;;;;5055243;28;20036;-59
2022/05/19 03:12:09;;;;;;;58.15;43.70;;;16.30;99.90;;;;;;5055680;28;20807;-59
2022/05/19 03:14:35;;;;;;;61.40;43.63;;;14.30;99.90;;;;;;5056008;28;20501;-59
2022/05/19 03:17:01;;;;;;;56.50;44.50;;;15.20;99.90;;;;;;5056488;28;20124;-59
2022/05/19 03:19:28;;;;;;;58.45;45.58;;;15.10;99.90;;;;;;5056235;28;20050;-59
2022/05/19 03:21:54;;;;;;;61.67;45.25;;;14.70;99.90;;;;;;5055736;28;20097;-59
2022/05/19 03:24:20;;;;;;;57.45;45.45;;;14.90;99.90;;;;;;5055255;28;21034;-59
2022/05/19 03:26:47;;;;;;;58.55;43.00;;;14.70;99.90;;;;;;5050364;28;20051;-58
2022/05/19 03:29:13;;;;;;;54.75;42.45;;;14.70;99.90;;;;;;5054847;28;20082;-59
2022/05/19 03:31:39;;;;;;;58.00;43.92;;;14.70;99.90;;;;;;5056118;28;20128;-60
2022/05/19 03:34:06;;;;;;;60.13;44.92;;;16.70;99.90;;;;;;5055666;28;20138;-60
2022/05/19 03:36:32;;;;;;;57.58;43.63;;;15.30;99.90;;;;;;5057084;28;20051;-59
2022/05/19 03:38:58;;;;;;;52.00;42.40;;;14.80;99.90;;;;;;5056202;28;20040;-59
2022/05/19 03:41:25;;;;;;;50.45;41.08;;;15.00;99.90;;;;;;5054999;28;20041;-59
2022/05/19 03:43:51;;;;;;;57.65;42.72;;;16.40;99.90;;;;;;5055221;28;20044;-60
2022/05/19 03:46:17;;;;;;;52.75;41.78;;;15.10;99.90;;;;;;5055244;28;20363;-59
2022/05/19 03:48:42;;;;;;;51.13;41.28;;;15.00;99.90;;;;;;5054750;28;20047;-60
2022/05/19 03:51:17;;;;;;;51.58;41.03;;;14.80;99.90;;;;;;5055482;28;20205;-59
2022/05/19 03:53:43;;;;;;;50.55;41.55;;;15.40;99.90;;;;;;5055252;28;20068;-59
2022/05/19 03:56:08;;;;;;;52.78;39.85;;;16.60;99.90;;;;;;5056913;28;20175;-59
2022/05/19 03:58:34;;;;;;;52.35;41.08;;;15.50;99.90;;;;;;5055700;28;20036;-59
2022/05/19 04:01:02;;;;;;;59.47;42.58;;;15.10;99.90;;;;;;5055989;28;20036;-59
2022/05/19 04:03:27;;;;;;;48.30;39.15;;;16.30;99.90;;;;;;5055365;28;20139;-59
2022/05/19 04:05:53;;;;;;;47.60;39.33;;;15.50;99.90;;;;;;5056049;28;20036;-60
2022/05/19 04:08:19;;;;;;;54.20;42.40;;;15.10;99.90;;;;;;5054905;28;20127;-59
2022/05/19 04:10:47;;;;;;;49.17;38.15;;;15.30;99.90;;;;;;5055893;28;20059;-59
2022/05/19 04:13:13;;;;;;;47.60;38.30;;;15.30;99.90;;;;;;5055662;28;20032;-60
2022/05/19 04:15:40;;;;;;;45.15;35.30;;;15.30;99.90;;;;;;5055779;28;20136;-59
2022/05/19 04:18:07;;;;;;;45.58;35.92;;;15.40;99.90;;;;;;5056570;28;20041;-59
2022/05/19 04:20:33;;;;;;;43.83;36.30;;;15.50;99.90;;;;;;5055513;28;20032;-60
2022/05/19 04:23:01;;;;;;;45.55;37.92;;;15.40;99.90;;;;;;5055139;28;20190;-59
2022/05/19 04:25:29;;;;;;;45.58;36.25;;;15.50;99.90;;;;;;5054687;28;20048;-59
2022/05/19 04:27:56;;;;;;;45.22;37.40;;;15.70;99.90;;;;;;5053974;28;20036;-59
2022/05/19 04:30:22;;;;;;;47.92;38.00;;;15.60;99.90;;;;;;5054678;28;20205;-59
2022/05/19 04:32:48;;;;;;;48.03;36.05;;;15.90;99.90;;;;;;5055593;28;20209;-59
2022/05/19 04:35:14;;;;;;;46.75;37.42;;;18.20;99.90;;;;;;5054677;28;20127;-59
2022/05/19 04:37:40;;;;;;;47.58;38.78;;;15.90;99.90;;;;;;5054090;28;20135;-59
2022/05/19 04:40:07;;;;;;;49.03;40.40;;;16.90;99.90;;;;;;5054983;28;20053;-59
2022/05/19 04:42:33;;;;;;;50.55;41.38;;;16.20;99.90;;;;;;5054235;28;20690;-59
2022/05/19 04:44:59;;;;;;;49.47;43.22;;;16.10;99.90;;;;;;5086735;28;20617;-59
2022/05/19 04:47:25;;;;;;;57.30;43.70;;;16.80;99.90;;;;;;5053687;28;20036;-59
2022/05/19 04:49:51;;;;;;;56.53;43.78;;;18.10;99.90;;;;;;5055049;28;20135;-59
2022/05/19 04:52:17;;;;;;;55.30;44.47;;;16.20;99.90;;;;;;5054815;28;20467;-59
2022/05/19 04:54:43;;;;;;;54.67;44.88;;;17.30;99.90;;;;;;5054253;28;20090;-59
2022/05/19 04:57:10;;;;;;;50.95;42.35;;;16.40;99.90;;;;;;5054363;28;20052;-59
2022/05/19 04:59:39;;;;;;;51.65;42.13;;;16.30;99.90;;;;;;5053216;28;20285;-59
2022/05/19 05:02:06;;;;;;;55.30;42.83;;;17.60;99.90;;;;;;5055382;28;20075;-58
2022/05/19 05:04:32;;;;;;;52.47;42.03;;;18.80;99.90;;;;;;5054812;28;20044;-59
2022/05/19 05:06:57;;;;;;;47.83;40.10;;;16.50;99.90;;;;;;5053888;28;20041;-60
2022/05/19 05:09:24;;;;;;;51.88;42.30;;;16.40;99.90;;;;;;5053833;28;20036;-58
2022/05/19 05:11:49;;;;;;;47.13;39.30;;;16.60;99.90;;;;;;5054195;28;20036;-60
2022/05/19 05:14:17;;;;;;;50.90;41.38;;;17.70;99.90;;;;;;5054054;28;20032;-59
2022/05/19 05:16:51;;;;;;;45.47;38.25;;;17.00;99.90;;;;;;5053326;28;20544;-59
2022/05/19 05:19:19;;;;;;;53.25;41.72;;;16.70;99.90;;;;;;5054533;28;20036;-59
2022/05/19 05:21:51;;;;;;;50.33;42.13;;;17.40;99.90;;;;;;5054161;28;20032;-59
2022/05/19 05:24:17;;;;;;;49.42;40.85;;;16.70;99.90;;;;;;5052570;28;20133;-60
2022/05/19 05:26:45;;;;;;;46.88;39.92;;;16.90;99.90;;;;;;5048183;28;20736;-60
2022/05/19 05:29:11;;;;;;;45.97;38.15;;;18.40;99.90;;;;;;5051847;28;20045;-59
2022/05/19 05:31:37;;;;;;;50.50;40.10;;;16.80;99.90;;;;;;5052338;28;20059;-60
2022/05/19 05:34:03;;;;;;;44.58;36.60;;;17.90;99.90;;;;;;5053878;28;20036;-59
2022/05/19 05:36:28;;;;;;;46.33;38.20;;;17.10;99.90;;;;;;5053865;28;20039;-59
2022/05/19 05:38:54;;;;;;;41.35;34.58;;;17.00;99.90;;;;;;5053580;28;20044;-59
2022/05/19 05:41:20;;;;;;;43.22;33.22;;;16.90;99.90;;;;;;5052219;28;20374;-60
2022/05/19 05:43:46;;;;;;;43.03;35.03;;;17.10;99.90;;;;;;5052034;28;20032;-59
2022/05/19 05:46:14;;;;;;;42.15;34.33;;;17.30;99.90;;;;;;5052731;28;20086;-60
2022/05/19 05:48:42;;;;;;;41.60;33.90;;;19.50;99.90;;;;;;5052304;28;20314;-60
2022/05/19 05:51:09;;;;;;;39.22;30.35;;;17.20;99.90;;;;;;5052423;28;20390;-60
2022/05/19 05:53:36;;;;;;;41.03;32.72;;;17.30;99.90;;;;;;5048547;28;20051;-60
2022/05/19 05:56:03;;;;;;;39.03;33.58;;;17.30;99.90;;;;;;5052498;28;20127;-60
2022/05/19 05:58:29;;;;;;;35.42;29.58;;;17.30;99.90;;;;;;5053352;28;20125;-60
2022/05/19 06:00:55;;;;;;;38.17;30.55;;;17.90;99.90;;;;;;5052360;28;20047;-61
2022/05/19 06:03:23;;;;;;;34.85;28.33;;;17.60;99.90;;;;;;5084753;28;20032;-60
2022/05/19 06:05:49;;;;;;;34.38;28.83;;;17.50;99.90;;;;;;5050210;28;20040;-60
2022/05/19 06:08:15;;;;;;;40.45;27.65;;;17.80;99.90;;;;;;5053631;28;20045;-60
2022/05/19 06:10:42;;;;;;;34.88;27.23;;;18.90;99.90;;;;;;5050675;28;20050;-60
2022/05/19 06:13:08;;;;;;;29.10;25.85;;;17.60;99.90;;;;;;5052786;28;20078;-60
2022/05/19 06:15:35;;;;;;;33.72;26.15;;;18.00;99.90;;;;;;5051159;28;20106;-59
2022/05/19 06:18:03;;;;;;;31.98;25.80;;;18.80;99.90;;;;;;5052721;28;20036;-60
2022/05/19 06:20:29;;;;;;;38.97;29.10;;;17.80;99.90;;;;;;5053319;28;20429;-57
2022/05/19 06:22:56;;;;;;;42.08;31.08;;;17.80;99.90;;;;;;5052524;28;20067;-57
2022/05/19 06:25:22;;;;;;;38.92;27.83;;;17.90;99.90;;;;;;5052193;28;20094;-58
2022/05/19 06:27:51;;;;;;;34.55;29.23;;;17.70;99.90;;;;;;5054147;28;20037;-57
2022/05/19 06:30:18;;;;;;;30.02;25.70;;;17.60;99.90;;;;;;5053200;28;20116;-57
2022/05/19 06:32:47;;;;;;;35.33;27.58;;;19.70;99.90;;;;;;5053948;28;20082;-57
2022/05/19 06:35:16;;;;;;;34.60;30.63;;;17.50;99.90;;;;;;5034715;28;20102;-57
2022/05/19 06:37:42;;;;;;;37.20;30.42;;;17.30;99.90;;;;;;5052633;28;20040;-58
2022/05/19 06:40:09;;;;;;;38.47;31.80;;;17.70;99.90;;;;;;5051975;28;20091;-58
2022/05/19 06:42:37;;;;;;;36.83;32.33;;;17.30;99.90;;;;;;5053217;28;20401;-59
2022/05/19 06:45:04;;;;;;;41.60;32.72;;;17.20;99.90;;;;;;5053415;28;20052;-58
2022/05/19 06:47:30;;;;;;;46.00;34.42;;;17.30;99.90;;;;;;5052052;28;20032;-58
2022/05/19 06:49:56;;;;;;;41.10;31.55;;;17.40;99.90;;;;;;5052807;28;20041;-58
2022/05/19 06:52:28;;;;;;;45.10;36.08;;;17.30;99.90;;;;;;5051380;28;20068;-58
2022/05/19 06:54:56;;;;;;;38.88;33.22;;;17.30;99.90;;;;;;5052310;28;20092;-58
2022/05/19 06:57:24;;;;;;;38.85;32.78;;;19.50;99.90;;;;;;5052336;28;20681;-58
2022/05/19 06:59:51;;;;;;;40.92;33.22;;;17.80;99.90;;;;;;5052510;28;20472;-58
2022/05/19 07:02:18;;;;;;;34.08;30.25;;;17.20;99.90;;;;;;5053549;28;20124;-58
2022/05/19 07:04:46;;;;;;;39.42;29.13;;;17.50;99.90;;;;;;5052149;28;20120;-58
2022/05/19 07:07:13;;;;;;;37.38;29.65;;;19.20;99.90;;;;;;5051331;28;20124;-58
2022/05/19 07:09:39;;;;;;;32.05;26.38;;;19.60;99.90;;;;;;5052489;28;20040;-58
2022/05/19 07:12:09;;;;;;;36.20;26.92;;;19.40;99.90;;;;;;5053415;28;20648;-58
2022/05/19 07:14:35;;;;;;;35.10;28.60;;;17.60;99.90;;;;;;5052134;28;20413;-57
2022/05/19 07:17:01;;;;;;;33.38;25.48;;;17.60;99.90;;;;;;5050937;28;20040;-58
2022/05/19 07:22:17;;;;;;;32.70;25.85;;;17.60;99.90;;;;;;5051260;28;20231;-58
2022/05/19 07:24:43;;;;;;;31.50;25.48;;;17.50;99.90;;;;;;5050282;28;20047;-58
2022/05/19 07:27:09;;;;;;;30.63;24.65;;;17.60;99.90;;;;;;5049503;28;20053;-58
2022/05/19 07:29:34;;;;;;;31.33;23.95;;;17.70;99.90;;;;;;5051477;28;20045;-58
2022/05/19 07:32:03;;;;;;;31.98;25.40;;;19.80;99.90;;;;;;5051568;28;20044;-58
2022/05/19 07:34:32;;;;;;;34.05;25.38;;;17.60;99.90;;;;;;5052287;28;20729;-59
2022/05/19 07:36:58;;;;;;;35.90;26.27;;;17.80;99.90;;;;;;5051427;28;20048;-57
2022/05/19 07:39:24;;;;;;;36.50;28.52;;;18.60;99.90;;;;;;5052515;28;20047;-58
2022/05/19 07:41:53;;;;;;;31.35;25.38;;;17.50;99.90;;;;;;5052874;28;20041;-57
2022/05/19 07:44:19;;;;;;;32.30;26.58;;;17.70;99.90;;;;;;5052236;28;20386;-58
2022/05/19 07:46:47;;;;;;;28.20;24.88;;;17.60;99.90;;;;;;5052406;28;20546;-57
2022/05/19 07:49:12;;;;;;;30.65;25.52;;;17.60;99.90;;;;;;5054088;28;20033;-58
2022/05/19 07:51:40;;;;;;;31.10;26.25;;;19.90;99.90;;;;;;5056092;28;20452;-58
2022/05/19 07:54:12;;;;;;;29.67;22.85;;;17.80;99.90;;;;;;5056740;28;20576;-59
2022/05/19 07:56:39;;;;;;;26.20;22.50;;;17.90;99.90;;;;;;5055148;28;20040;-58
2022/05/19 07:59:05;;;;;;;25.55;22.85;;;18.00;99.90;;;;;;5056512;28;20040;-59
2022/05/19 08:01:33;;;;;;;29.15;23.23;;;17.90;99.90;;;;;;5055046;28;20333;-59
2022/05/19 08:03:59;;;;;;;31.67;23.67;;;17.80;99.90;;;;;;5056193;28;20044;-58
2022/05/19 08:06:28;;;;;;;29.58;22.63;;;17.90;99.90;;;;;;5056345;28;20720;-59
2022/05/19 08:08:54;;;;;;;28.45;23.38;;;18.00;99.90;;;;;;5055164;28;20546;-58
2022/05/19 08:11:20;;;;;;;28.58;22.27;;;19.40;99.90;;;;;;5055574;28;20277;-58
2022/05/19 08:16:32;;;;;;;30.08;21.98;;;18.40;99.90;;;;;;5054495;28;20048;-59
2022/05/19 08:18:58;;;;;;;29.33;22.75;;;18.90;99.90;;;;;;5036529;28;20056;-58
2022/05/19 08:21:24;;;;;;;29.90;22.70;;;18.80;99.90;;;;;;5056000;28;20473;-59
2022/05/19 08:23:52;;;;;;;29.67;21.80;;;17.90;99.90;;;;;;5054252;28;20068;-59
2022/05/19 08:26:18;;;;;;;27.15;20.85;;;18.00;99.90;;;;;;5055563;28;20060;-59
2022/05/19 08:28:45;;;;;;;23.20;19.83;;;17.80;99.90;;;;;;5053226;28;20121;-59
2022/05/19 08:31:20;;;;;;;26.08;19.52;;;18.10;99.90;;;;;;5055313;28;20083;-59
2022/05/19 08:33:48;;;;;;;24.67;17.63;;;18.10;99.90;;;;;;5055451;28;20650;-59
2022/05/19 08:36:14;;;;;;;22.58;17.55;;;18.20;99.90;;;;;;5053840;28;20044;-59
2022/05/19 08:38:40;;;;;;;21.20;15.45;;;18.30;99.90;;;;;;5054444;28;20211;-59
2022/05/19 08:41:27;;;;;;;22.30;17.00;;;18.20;99.90;;;;;;5053974;28;20032;-59
2022/05/19 08:44:01;;;;;;;23.90;16.13;;;18.50;99.90;;;;;;5054604;28;20036;-59
2022/05/19 08:46:35;;;;;;;21.98;12.85;;;18.50;99.90;;;;;;5054518;28;20520;-59
2022/05/19 08:49:34;;;;;;;20.17;13.10;;;19.40;99.90;;;;;;5053707;28;20041;-60
2022/05/19 08:52:05;;;;;;;16.95;12.52;;;18.90;99.90;;;;;;5053265;28;20693;-60
2022/05/19 08:54:33;;;;;;;18.53;11.83;;;19.00;99.90;;;;;;5054484;28;20494;-60
2022/05/19 08:57:19;;;;;;;16.67;10.88;;;20.50;99.90;;;;;;5054661;28;20059;-60
2022/05/19 09:00:00;;;;;;;15.55;11.20;;;19.30;99.90;;;;;;5053907;28;20074;-60
2022/05/19 09:02:59;;;;;;;17.13;11.25;;;19.30;99.90;;;;;;5054877;28;20535;-60
2022/05/19 09:05:52;;;;;;;17.02;12.73;;;19.60;99.90;;;;;;4992717;28;20180;-60
2022/05/19 09:08:45;;;;;;;18.15;13.13;;;19.70;99.90;;;;;;4993152;28;20102;-60
2022/05/19 09:11:20;;;;;;;18.13;14.23;;;19.90;99.90;;;;;;4993455;28;20049;-60
2022/05/19 09:13:52;;;;;;;17.25;13.98;;;20.90;99.90;;;;;;4993058;28;20044;-61
2022/05/19 09:16:21;;;;;;;24.95;14.13;;;22.40;99.90;;;;;;4992898;28;20050;-61
2022/05/19 09:19:06;;;;;;;19.30;15.50;;;21.90;99.90;;;;;;4991820;28;20141;-61
2022/05/19 09:21:34;;;;;;;19.30;14.80;;;20.40;99.90;;;;;;4992474;28;20218;-61
2022/05/19 09:23:59;;;;;;;18.63;14.88;;;20.40;99.90;;;;;;4991584;28;20620;-60
2022/05/19 09:26:43;;;;;;;19.83;15.43;;;20.50;99.90;;;;;;4992469;28;20034;-60
2022/05/19 09:29:14;;;;;;;18.00;14.85;;;20.60;99.90;;;;;;4990888;28;20085;-60
2022/05/19 09:31:45;;;;;;;20.73;15.90;;;20.50;99.90;;;;;;4991529;28;20711;-60
2022/05/19 09:34:11;;;;;;;;;;;20.60;99.90;;;;;;4994492;28;20046;-60
2022/05/19 09:36:42;;;;;;;15.13;12.82;;;21.40;99.90;;;;;;4992777;28;19948;-60
2022/05/19 09:39:15;;;;;;;18.65;15.43;;;21.20;99.90;;;;;;4991177;28;20451;-60
2022/05/19 09:41:47;;;;;;;19.20;14.68;;;21.60;99.90;;;;;;5017478;28;20078;-60
2022/05/19 09:44:14;;;;;;;;;;;21.10;99.90;;;;;;5051637;28;20044;-60
2022/05/19 09:46:42;;;;;;;21.52;14.70;;;21.30;99.90;;;;;;5053756;28;19924;-60
2022/05/19 09:49:33;;;;;;;17.35;14.90;;;21.30;99.90;;;;;;5053244;28;20048;-60
2022/05/19 09:52:04;;;;;;;20.08;13.30;;;21.20;99.90;;;;;;5053828;28;20090;-61
2022/05/19 09:54:32;;;;;;;19.08;15.07;;;21.30;99.90;;;;;;5054154;28;20055;-60
2022/05/19 09:57:33;;;;;;;18.60;14.82;;;21.10;99.90;;;;;;5052739;28;20569;-60
2022/05/19 10:00:04;;;;;;;17.07;13.97;;;21.00;99.90;;;;;;5029421;28;20045;-60
2022/05/19 10:02:32;;;;;;;16.83;14.35;;;21.20;99.90;;;;;;5030037;28;20036;-60
2022/05/19 10:05:05;;;;;;;19.95;14.90;;;21.10;99.90;;;;;;5030894;28;20306;-60
2022/05/19 10:07:39;;;;;;;18.60;14.77;;;21.20;99.90;;;;;;5030201;28;20051;-60
2022/05/19 10:10:19;;;;;;;17.83;14.77;;;21.20;99.90;;;;;;5029814;28;21171;-59
2022/05/19 10:12:48;;;;;;;21.45;14.07;;;21.60;99.90;;;;;;5029959;28;20080;-60
2022/05/19 10:15:17;;;;;;;16.48;13.63;;;22.10;99.90;;;;;;5031420;28;20124;-60
2022/05/19 10:17:55;;;;;;;18.00;13.60;;;22.50;99.90;;;;;;5030326;28;20591;-61
2022/05/19 10:20:30;;;;;;;18.08;12.85;;;22.60;99.90;;;;;;5030460;28;20037;-60
2022/05/19 10:23:15;;;;;;;15.55;12.27;;;23.20;99.90;;;;;;5029813;28;20470;-60
2022/05/19 10:26:03;;;;;;;16.60;12.52;;;23.10;99.90;;;;;;5030076;28;20099;-61
2022/05/19 10:32:00;;;;;;;17.00;12.25;;;22.60;99.90;;;;;;5030893;28;20068;-61
2022/05/19 10:34:48;;;;;;;13.85;11.32;;;22.50;99.90;;;;;;5030061;28;20489;-61
2022/05/19 10:37:59;;;;;;;13.90;11.38;;;24.10;99.90;;;;;;5047777;28;20056;-60
2022/05/19 10:40:56;;;;;;;18.20;11.45;;;22.30;99.90;;;;;;5030999;28;20045;-60
2022/05/19 10:44:03;;;;;;;13.50;10.27;;;22.30;99.90;;;;;;5030502;28;20051;-61
2022/05/19 10:46:58;;;;;;;14.73;11.02;;;22.30;99.90;;;;;;4955273;28;20542;-60
2022/05/19 10:49:49;;;;;;;14.88;10.27;;;22.50;99.90;;;;;;4950356;28;20050;-60
2022/05/19 10:52:39;;;;;;;15.38;9.40;;;23.20;99.90;;;;;;4952227;28;20137;-60
2022/05/19 10:55:21;;;;;;;11.75;7.88;;;23.50;99.90;;;;;;4952558;28;20042;-59
2022/05/19 10:58:19;;;;;;;11.35;7.30;;;23.80;99.90;;;;;;4951310;28;20235;-59
2022/05/19 11:01:08;;;;;;;9.68;6.05;;;24.10;99.90;;;;;;4894795;29;20138;-59
2022/05/19 11:03:59;;;;;;;6.53;4.63;;;24.50;99.90;;;;;;4894406;29;20052;-59
2022/05/19 11:07:06;;;;;;;9.40;5.07;;;24.70;99.90;;;;;;4894027;29;20794;-59
2022/05/19 11:10:07;;;;;;;7.35;4.55;;;24.90;99.90;;;;;;4895746;29;20143;-58
2022/05/19 11:13:14;;;;;;;7.63;5.15;;;24.90;99.90;;;;;;4896868;29;20123;-59
2022/05/19 11:16:10;;;;;;;8.38;4.32;;;24.70;99.90;;;;;;4877962;29;20052;-59
2022/05/19 11:18:44;;;;;;;6.63;3.88;;;24.90;99.90;;;;;;4856323;29;20048;-59
2022/05/19 11:21:31;;;;;;;6.10;4.28;;;25.60;99.90;;;;;;4840730;29;20551;-59
2022/05/19 11:24:23;;;;;;;8.15;4.82;;;24.60;99.90;;;;;;4859887;29;20061;-59
2022/05/19 11:26:59;;;;;;;9.77;5.63;;;24.80;99.90;;;;;;4861729;29;20060;-59
2022/05/19 11:29:39;;;;;;;7.20;4.80;;;25.20;99.90;;;;;;4913567;28;20570;-59
2022/05/19 11:32:22;;;;;;;8.60;5.05;;;25.20;99.90;;;;;;4954279;28;20053;-60
2022/05/19 11:35:03;;;;;;;7.60;5.50;;;25.60;99.90;;;;;;4954483;28;20073;-58
2022/05/19 11:38:04;;;;;;;8.35;4.75;;;25.60;99.90;;;;;;4968199;28;20508;-60
2022/05/19 11:40:48;;;;;;;8.60;5.63;;;25.80;99.90;;;;;;4958212;28;20054;-59
2022/05/19 11:43:32;;;;;;;9.70;5.63;;;25.90;99.90;;;;;;4977938;28;20128;-60
2022/05/19 11:46:19;;;;;;;8.73;5.35;;;25.50;99.90;;;;;;4977603;28;20145;-61
2022/05/19 11:55:19;;;;;;;10.00;5.35;;;24.80;99.90;;;;;;5055457;28;20066;-60
2022/05/19 11:58:17;;;;;;;8.80;5.68;;;24.40;99.90;;;;;;5055443;28;20657;-60
2022/05/19 12:01:10;;;;;;;9.60;5.65;;;24.20;99.90;;;;;;5055146;28;20036;-60
2022/05/19 12:03:57;;;;;;;8.57;5.00;;;23.90;99.90;;;;;;5054194;28;20520;-60
2022/05/19 12:06:33;;;;;;;8.77;4.68;;;23.40;99.90;;;;;;5056628;28;20045;-61
2022/05/19 12:09:25;;;;;;;11.48;6.85;;;23.70;99.90;;;;;;5056339;28;20634;-61
2022/05/19 12:11:57;;;;;;;8.95;6.57;;;23.10;99.90;;;;;;5054940;28;20086;-62
2022/05/19 12:14:47;;;;;;;9.60;6.78;;;22.70;99.90;;;;;;5055543;28;20048;-61
2022/05/19 12:17:27;;;;;;;11.52;7.53;;;23.00;99.90;;;;;;5052049;28;20052;-61
2022/05/19 12:19:55;;;;;;;9.80;6.68;;;22.60;99.90;;;;;;5052146;28;20056;-61
2022/05/19 12:23:03;;;;;;;8.23;6.63;;;22.40;99.90;;;;;;5052610;28;20066;-62
2022/05/19 12:25:32;;;;;;;8.95;6.40;;;22.30;99.90;;;;;;4993602;28;20046;-59
2022/05/19 12:28:26;;;;;;;16.23;7.65;;;22.50;99.90;;;;;;4993784;28;20053;-62
2022/05/19 12:33:56;;;;;;;20.90;9.85;;;22.30;99.90;;;;;;4992508;28;20046;-62
2022/05/19 12:36:31;;;;;;;17.65;8.60;;;22.10;99.90;;;;;;4993470;28;20077;-61
2022/05/19 12:39:15;;;;;;;15.20;7.13;;;22.00;99.90;;;;;;4992443;28;20050;-61
2022/05/19 12:41:50;;;;;;;36.72;9.35;;;22.00;99.90;;;;;;4992095;28;20064;-56
2022/05/19 12:44:39;;;;;;;45.35;14.75;;;21.50;99.90;;;;;;4992909;28;20064;-59
2022/05/19 12:47:30;;;;;;;17.30;4.30;;;21.30;99.90;;;;;;4993058;28;21674;-58
2022/05/19 12:50:21;;;;;;;16.85;5.20;;;20.40;99.90;;;;;;4991351;28;20058;-57
2022/05/19 12:53:11;;;;;;;15.60;5.00;;;20.00;99.90;;;;;;4973911;28;20077;-57
2022/05/19 12:55:50;;;;;;;13.90;4.25;;;19.60;99.90;;;;;;4953899;28;20597;-57
2022/05/19 12:58:33;;;;;;;31.92;8.55;;;19.40;99.90;;;;;;4954680;28;20580;-57
2022/05/19 13:01:31;;;;;;;11.90;3.35;;;20.50;99.90;;;;;;4953130;28;20130;-58
2022/05/19 13:04:36;;;;;;;8.60;2.85;;;18.80;99.90;;;;;;4972552;28;20396;-56
2022/05/19 13:07:33;;;;;;;73.20;16.88;;;18.70;99.90;;;;;;4972631;28;20214;-57
2022/05/19 13:10:17;;;;;;;16.95;4.38;;;18.60;99.90;;;;;;4935959;28;20572;-57
2022/05/19 13:13:20;;;;;;;5.70;1.98;;;18.30;99.90;;;;;;4934479;28;20035;-57
2022/05/19 13:15:57;;;;;;;16.30;4.32;;;17.90;99.90;;;;;;4915666;29;20115;-57
2022/05/19 13:18:39;;;;;;;14.80;3.78;;;18.00;99.90;;;;;;4916075;29;20051;-58
2022/05/19 13:21:11;;;;;;;11.07;3.08;;;17.90;99.90;;;;;;4915536;29;20286;-57